Virginia — WCW4062 — position and weather

sailwx.info

Track history (hours):
 
Tides and Currents Weather Stations Pressure Air Temp Water Temp Dewpoint Dewpoint Depression Visibility Wind Speed Wind Dir Waves Ship Positions

Virginia

Owner: WEEKS MARINE, INC., CRANFORD, NJ. More information available from US FCC via Universal Licensing System and Coast Guard Vessel Documentation Center.

Last reported at 2016-Jul-26 04:13 UTC. Time now 2016-Jul-26 04:40 UTC.
Position N 32°16' W 080°44'.

MMSI: 366939110.

Date/timePositionNaut miles runAvg speedWind from/ knotsBaromVisibWave heightAir tempDewpointWater temp
2016-Jul-26 04:13N 32°16' W 080°44'0 0.0
2016-Jul-26 03:12N 32°16' W 080°44'4 5.8
2016-Jul-26 02:30N 32°13' W 080°47'4 4.0
2016-Jul-26 01:33N 32°09' W 080°49'0 0.0
2016-Jul-26 00:33N 32°09' W 080°49'3 3.5
2016-Jul-25 23:33N 32°06' W 080°50'1 1.0
2016-Jul-25 22:20N 32°05' W 080°49'1 1.7
2016-Jul-25 21:33N 32°06' W 080°50'3 1.4
2016-Jul-25 19:29N 32°09' W 080°49'1 0.6
2016-Jul-25 18:32N 32°09' W 080°49'0 0.0
2016-Jul-25 17:33N 32°09' W 080°49'0 0.0
2016-Jul-25 16:34N 32°09' W 080°49'0 0.0
2016-Jul-25 15:34N 32°09' W 080°49'0 0.0
2016-Jul-25 14:33N 32°09' W 080°49'0 0.0
2016-Jul-25 13:34N 32°09' W 080°49'0 0.0
2016-Jul-25 12:33N 32°09' W 080°49'0 0.0
2016-Jul-25 11:30N 32°09' W 080°49'0 0.0
2016-Jul-25 10:29N 32°09' W 080°49'0 0.0
2016-Jul-25 09:33N 32°09' W 080°49'0 0.0
2016-Jul-25 08:24N 32°09' W 080°49'0 0.0
2016-Jul-25 07:09N 32°09' W 080°49'0 0.0
2016-Jul-25 06:33N 32°09' W 080°49'0 0.0
2016-Jul-25 05:33N 32°09' W 080°49'0 0.0
2016-Jul-25 04:34N 32°09' W 080°49'0 0.0
2016-Jul-25 03:33N 32°09' W 080°49'0 0.0
2016-Jul-25 02:34N 32°09' W 080°49'0 0.0
2016-Jul-25 01:33N 32°09' W 080°49'0 0.0
2016-Jul-25 00:34N 32°09' W 080°49'0 0.0
2016-Jul-24 23:34N 32°09' W 080°49'0 0.0
2016-Jul-24 22:33N 32°09' W 080°49'0 0.0
2016-Jul-24 21:27N 32°09' W 080°49'0 0.0
2016-Jul-24 17:13N 32°09' W 080°49'0 0.0
2016-Jul-24 16:34N 32°09' W 080°49'0 0.0
2016-Jul-24 15:34N 32°09' W 080°49'0 0.0
2016-Jul-24 14:34N 32°09' W 080°49'0 0.0
2016-Jul-24 13:33N 32°09' W 080°49'0 0.0
2016-Jul-24 12:34N 32°09' W 080°49'0 0.2
2016-Jul-24 11:33N 32°09' W 080°48'0 0.0
2016-Jul-24 10:34N 32°09' W 080°48'0 0.0
2016-Jul-24 09:33N 32°09' W 080°48'0 0.0
2016-Jul-24 06:33N 32°09' W 080°48'0 0.0
2016-Jul-24 05:33N 32°09' W 080°48'0 0.0
2016-Jul-24 04:33N 32°09' W 080°48'0 0.0
2016-Jul-24 03:34N 32°09' W 080°48'0 0.0
2016-Jul-24 02:34N 32°09' W 080°48'0 0.0
2016-Jul-24 01:34N 32°09' W 080°48'0 0.0
2016-Jul-24 00:33N 32°09' W 080°48'0 0.0
2016-Jul-23 23:34N 32°09' W 080°48'0 0.0
2016-Jul-23 22:34N 32°09' W 080°48'0 0.0
2016-Jul-23 21:29N 32°09' W 080°48'0 0.0
2016-Jul-23 20:32N 32°09' W 080°48'5 4.7
2016-Jul-23 19:33N 32°05' W 080°49'0 0.0
2016-Jul-23 18:34N 32°05' W 080°49'0 0.5
2016-Jul-23 17:34N 32°05' W 080°50'1 1.0
2016-Jul-23 16:34N 32°06' W 080°50'0 0.0
2016-Jul-23 15:32N 32°06' W 080°50'0 0.0
2016-Jul-23 14:33N 32°06' W 080°50'1 1.0
2016-Jul-23 13:34N 32°05' W 080°50'1 0.5
2016-Jul-23 12:33N 32°05' W 080°49'1 0.5
2016-Jul-23 11:34N 32°05' W 080°50'0 0.0
2016-Jul-23 10:34N 32°05' W 080°50'0 0.1
2016-Jul-23 09:28N 32°05' W 080°50'0 0.0
2016-Jul-23 08:33N 32°05' W 080°50'0 0.0
2016-Jul-23 07:33N 32°05' W 080°50'0 0.0
2016-Jul-23 06:33N 32°05' W 080°50'0 0.0
2016-Jul-23 04:33N 32°05' W 080°50'0 0.1
2016-Jul-23 03:34N 32°05' W 080°50'0 0.0
2016-Jul-23 02:34N 32°05' W 080°50'0 0.0
2016-Jul-23 01:34N 32°05' W 080°50'0 0.0
2016-Jul-23 00:33N 32°05' W 080°50'0 0.3
2016-Jul-22 23:34N 32°05' W 080°50'0 0.3
2016-Jul-22 22:34N 32°05' W 080°50'0 0.0
2016-Jul-22 21:34N 32°05' W 080°50'0 0.1
2016-Jul-22 20:34N 32°05' W 080°50'0 0.5
2016-Jul-22 19:34N 32°05' W 080°49'0 0.1
2016-Jul-22 18:34N 32°05' W 080°50'0 0.1
2016-Jul-22 17:34N 32°05' W 080°49'0 0.2
2016-Jul-22 16:34N 32°05' W 080°49'0 0.2
2016-Jul-22 15:34N 32°05' W 080°49'0 0.0
2016-Jul-22 14:34N 32°05' W 080°49'2 1.7
2016-Jul-22 13:33N 32°04' W 080°48'5 4.8
2016-Jul-22 12:32N 32°04' W 080°42'5 4.9
2016-Jul-22 11:34N 32°05' W 080°36'3 0.2
2016-Jul-21 22:28N 32°05' W 080°40'5 6.0
2016-Jul-21 21:34N 32°04' W 080°46'1 0.9
2016-Jul-21 20:33N 32°04' W 080°47'1 1.0
2016-Jul-21 19:34N 32°04' W 080°48'1 1.4
2016-Jul-21 18:33N 32°05' W 080°49'0 0.2
2016-Jul-21 17:34N 32°05' W 080°49'4 3.8
2016-Jul-21 16:33N 32°04' W 080°45'7 6.4
2016-Jul-21 15:32N 32°06' W 080°38'7 0.8
2016-Jul-21 06:26N 32°14' W 080°37'7 1.9
2016-Jul-21 02:34N 32°17' W 080°45'1 0.3
2016-Jul-21 00:27N 32°18' W 080°46'0 0.0
2016-Jul-20 23:30N 32°18' W 080°46'0 0.0
2016-Jul-20 22:16N 32°18' W 080°46'0 0.0
2016-Jul-20 21:33N 32°18' W 080°46'1 1.1
2016-Jul-20 20:34N 32°17' W 080°45'7 0.2
2016-Jul-19 08:12N 32°14' W 080°38'0 0.1
2016-Jul-19 07:34N 32°14' W 080°38'0 0.0
2016-Jul-18 11:29N 32°14' W 080°37'0 0.4
2016-Jul-18 10:31N 32°14' W 080°38'0 0.0
2016-Jul-18 09:33N 32°14' W 080°38'0 0.0
2016-Jul-18 08:26N 32°14' W 080°38'0 0.0
2016-Jul-18 07:34N 32°14' W 080°38'0 0.1
2016-Jul-18 06:34N 32°14' W 080°38'0 0.0
2016-Jul-18 00:34N 32°14' W 080°38'0 0.0
2016-Jul-17 22:27N 32°14' W 080°38'0 0.0
2016-Jul-17 21:33N 32°14' W 080°38'0 0.0
2016-Jul-17 19:14N 32°14' W 080°38'0 0.0
2016-Jul-17 12:34N 32°14' W 080°37'0 0.0
2016-Jul-16 09:31N 32°14' W 080°38'0 0.0
2016-Jul-16 07:21N 32°14' W 080°38'  
Track history (hours):
 
Tides and Currents Weather Stations Pressure Air Temp Water Temp Dewpoint Dewpoint Depression Visibility Wind Speed Wind Dir Waves Ship Positions

Virginia

Owner: WEEKS MARINE, INC., CRANFORD, NJ. More information available from US FCC via Universal Licensing System and Coast Guard Vessel Documentation Center.

Last reported at 2016-Jul-26 04:13 UTC. Time now 2016-Jul-26 04:40 UTC.
Position N 32°16' W 080°44'.

MMSI: 366939110.

Date/timePositionNaut miles runAvg speedWind from/ knotsBaromVisibWave heightAir tempDewpointWater temp
2016-Jul-26 04:13N 32°16' W 080°44'0 0.0
2016-Jul-26 03:12N 32°16' W 080°44'4 5.8
2016-Jul-26 02:30N 32°13' W 080°47'4 4.0
2016-Jul-26 01:33N 32°09' W 080°49'0 0.0
2016-Jul-26 00:33N 32°09' W 080°49'3 3.5
2016-Jul-25 23:33N 32°06' W 080°50'1 1.0
2016-Jul-25 22:20N 32°05' W 080°49'1 1.7
2016-Jul-25 21:33N 32°06' W 080°50'3 1.4
2016-Jul-25 19:29N 32°09' W 080°49'1 0.6
2016-Jul-25 18:32N 32°09' W 080°49'0 0.0
2016-Jul-25 17:33N 32°09' W 080°49'0 0.0
2016-Jul-25 16:34N 32°09' W 080°49'0 0.0
2016-Jul-25 15:34N 32°09' W 080°49'0 0.0
2016-Jul-25 14:33N 32°09' W 080°49'0 0.0
2016-Jul-25 13:34N 32°09' W 080°49'0 0.0
2016-Jul-25 12:33N 32°09' W 080°49'0 0.0
2016-Jul-25 11:30N 32°09' W 080°49'0 0.0
2016-Jul-25 10:29N 32°09' W 080°49'0 0.0
2016-Jul-25 09:33N 32°09' W 080°49'0 0.0
2016-Jul-25 08:24N 32°09' W 080°49'0 0.0
2016-Jul-25 07:09N 32°09' W 080°49'0 0.0
2016-Jul-25 06:33N 32°09' W 080°49'0 0.0
2016-Jul-25 05:33N 32°09' W 080°49'0 0.0
2016-Jul-25 04:34N 32°09' W 080°49'0 0.0
2016-Jul-25 03:33N 32°09' W 080°49'0 0.0
2016-Jul-25 02:34N 32°09' W 080°49'0 0.0
2016-Jul-25 01:33N 32°09' W 080°49'0 0.0
2016-Jul-25 00:34N 32°09' W 080°49'0 0.0
2016-Jul-24 23:34N 32°09' W 080°49'0 0.0
2016-Jul-24 22:33N 32°09' W 080°49'0 0.0
2016-Jul-24 21:27N 32°09' W 080°49'0 0.0
2016-Jul-24 17:13N 32°09' W 080°49'0 0.0
2016-Jul-24 16:34N 32°09' W 080°49'0 0.0
2016-Jul-24 15:34N 32°09' W 080°49'0 0.0
2016-Jul-24 14:34N 32°09' W 080°49'0 0.0
2016-Jul-24 13:33N 32°09' W 080°49'0 0.0
2016-Jul-24 12:34N 32°09' W 080°49'0 0.2
2016-Jul-24 11:33N 32°09' W 080°48'0 0.0
2016-Jul-24 10:34N 32°09' W 080°48'0 0.0
2016-Jul-24 09:33N 32°09' W 080°48'0 0.0
2016-Jul-24 06:33N 32°09' W 080°48'0 0.0
2016-Jul-24 05:33N 32°09' W 080°48'0 0.0
2016-Jul-24 04:33N 32°09' W 080°48'0 0.0
2016-Jul-24 03:34N 32°09' W 080°48'0 0.0
2016-Jul-24 02:34N 32°09' W 080°48'0 0.0
2016-Jul-24 01:34N 32°09' W 080°48'0 0.0
2016-Jul-24 00:33N 32°09' W 080°48'0 0.0
2016-Jul-23 23:34N 32°09' W 080°48'0 0.0
2016-Jul-23 22:34N 32°09' W 080°48'0 0.0
2016-Jul-23 21:29N 32°09' W 080°48'0 0.0
2016-Jul-23 20:32N 32°09' W 080°48'5 4.7
2016-Jul-23 19:33N 32°05' W 080°49'0 0.0
2016-Jul-23 18:34N 32°05' W 080°49'0 0.5
2016-Jul-23 17:34N 32°05' W 080°50'1 1.0
2016-Jul-23 16:34N 32°06' W 080°50'0 0.0
2016-Jul-23 15:32N 32°06' W 080°50'0 0.0
2016-Jul-23 14:33N 32°06' W 080°50'1 1.0
2016-Jul-23 13:34N 32°05' W 080°50'1 0.5
2016-Jul-23 12:33N 32°05' W 080°49'1 0.5
2016-Jul-23 11:34N 32°05' W 080°50'0 0.0
2016-Jul-23 10:34N 32°05' W 080°50'0 0.1
2016-Jul-23 09:28N 32°05' W 080°50'0 0.0
2016-Jul-23 08:33N 32°05' W 080°50'0 0.0
2016-Jul-23 07:33N 32°05' W 080°50'0 0.0
2016-Jul-23 06:33N 32°05' W 080°50'0 0.0
2016-Jul-23 04:33N 32°05' W 080°50'0 0.1
2016-Jul-23 03:34N 32°05' W 080°50'0 0.0
2016-Jul-23 02:34N 32°05' W 080°50'0 0.0
2016-Jul-23 01:34N 32°05' W 080°50'0 0.0
2016-Jul-23 00:33N 32°05' W 080°50'0 0.3
2016-Jul-22 23:34N 32°05' W 080°50'0 0.3
2016-Jul-22 22:34N 32°05' W 080°50'0 0.0
2016-Jul-22 21:34N 32°05' W 080°50'0 0.1
2016-Jul-22 20:34N 32°05' W 080°50'0 0.5
2016-Jul-22 19:34N 32°05' W 080°49'0 0.1
2016-Jul-22 18:34N 32°05' W 080°50'0 0.1
2016-Jul-22 17:34N 32°05' W 080°49'0 0.2
2016-Jul-22 16:34N 32°05' W 080°49'0 0.2
2016-Jul-22 15:34N 32°05' W 080°49'0 0.0
2016-Jul-22 14:34N 32°05' W 080°49'2 1.7
2016-Jul-22 13:33N 32°04' W 080°48'5 4.8
2016-Jul-22 12:32N 32°04' W 080°42'5 4.9
2016-Jul-22 11:34N 32°05' W 080°36'3 0.2
2016-Jul-21 22:28N 32°05' W 080°40'5 6.0
2016-Jul-21 21:34N 32°04' W 080°46'1 0.9
2016-Jul-21 20:33N 32°04' W 080°47'1 1.0
2016-Jul-21 19:34N 32°04' W 080°48'1 1.4
2016-Jul-21 18:33N 32°05' W 080°49'0 0.2
2016-Jul-21 17:34N 32°05' W 080°49'4 3.8
2016-Jul-21 16:33N 32°04' W 080°45'7 6.4
2016-Jul-21 15:32N 32°06' W 080°38'7 0.8
2016-Jul-21 06:26N 32°14' W 080°37'7 1.9
2016-Jul-21 02:34N 32°17' W 080°45'1 0.3
2016-Jul-21 00:27N 32°18' W 080°46'0 0.0
2016-Jul-20 23:30N 32°18' W 080°46'0 0.0
2016-Jul-20 22:16N 32°18' W 080°46'0 0.0
2016-Jul-20 21:33N 32°18' W 080°46'1 1.1
2016-Jul-20 20:34N 32°17' W 080°45'7 0.2
2016-Jul-19 08:12N 32°14' W 080°38'0 0.1
2016-Jul-19 07:34N 32°14' W 080°38'0 0.0
2016-Jul-18 11:29N 32°14' W 080°37'0 0.4
2016-Jul-18 10:31N 32°14' W 080°38'0 0.0
2016-Jul-18 09:33N 32°14' W 080°38'0 0.0
2016-Jul-18 08:26N 32°14' W 080°38'0 0.0
2016-Jul-18 07:34N 32°14' W 080°38'0 0.1
2016-Jul-18 06:34N 32°14' W 080°38'0 0.0
2016-Jul-18 00:34N 32°14' W 080°38'0 0.0
2016-Jul-17 22:27N 32°14' W 080°38'0 0.0
2016-Jul-17 21:33N 32°14' W 080°38'0 0.0
2016-Jul-17 19:14N 32°14' W 080°38'0 0.0
2016-Jul-17 12:34N 32°14' W 080°37'0 0.0
2016-Jul-16 09:31N 32°14' W 080°38'0 0.0
2016-Jul-16 07:21N 32°14' W 080°38'  

Dump ship's entire track history